»·PEaware :: N805RJ KBFL-KPSP

N805RJ :: KBFL-KPSP

FLIGHT INFORMATION

Flight Status: Arrived
Operator: Privately registered:
United States
More flights under this callsign
Pilot: Rickie J. (22768)
Aircraft: CESSNA 172 SKYHAWK
(C172)
More flights by this aircraft type
Origin: KBFL Meadows
United States
Destination: KPSP Palm Springs Intl
United States
More flights between these airports :: More routes between these airports
Route: ARVIN V197 PMD V386 YUCCA
File this flight plan on PilotEdge
Remarks:
Altitude:
(Current/Filed)
11,500ft
Speed:
(Current/Filed)
120kts
Departed: 02-Jan-21 09:38 AM
Arrived: 02-Jan-21 11:14 AM
Distance/Time
Traveled:
158nm/1:36
Distance/Time
To Go:
Arrived

Flight Plot

Page will automatically refresh every two minutes.

Flight plan parsing failed; only flown route is shown


Map Options




Map Legend


Flown Route
Filed Route
Departure Airport
Arrival Airport
Navaid (VOR, NDB)
Fix

Horizontal Profiles

Position Reports

Time Latitude Longitude Heading Altitude Ground
Speed
02-Jan-21 08:39 35.426255 -119.040641 185 509ft 0kts
02-Jan-21 08:40 35.426255 -119.040641 185 509ft 0kts
02-Jan-21 08:41 35.426255 -119.040641 185 509ft 0kts
02-Jan-21 08:42 35.426255 -119.040641 185 509ft 0kts
02-Jan-21 08:43 35.426255 -119.040641 185 509ft 0kts
02-Jan-21 08:44 35.426255 -119.040641 185 509ft 0kts
02-Jan-21 08:45 35.426255 -119.040641 185 509ft 0kts
02-Jan-21 08:46 35.426255 -119.040641 185 509ft 0kts
02-Jan-21 08:47 35.426255 -119.040641 185 509ft 0kts
02-Jan-21 08:48 35.426255 -119.040641 185 509ft 0kts
02-Jan-21 08:48 35.426255 -119.040641 185 509ft 0kts
02-Jan-21 08:49 35.426255 -119.040641 185 509ft 0kts
02-Jan-21 08:51 35.426255 -119.040641 185 509ft 0kts
02-Jan-21 08:52 35.426255 -119.040641 185 509ft 0kts
02-Jan-21 08:52 35.426255 -119.040641 185 509ft 0kts
02-Jan-21 08:53 35.426255 -119.040641 185 509ft 0kts
02-Jan-21 08:54 35.426255 -119.040641 185 509ft 0kts
02-Jan-21 08:55 35.426255 -119.040641 185 509ft 0kts
02-Jan-21 08:56 35.426255 -119.040641 185 509ft 0kts
02-Jan-21 08:57 35.426255 -119.040641 185 509ft 0kts
02-Jan-21 08:58 35.426255 -119.040641 185 509ft 0kts
02-Jan-21 08:59 35.426255 -119.040641 185 509ft 0kts
02-Jan-21 09:00 35.426255 -119.040641 185 509ft 0kts
02-Jan-21 09:01 35.426255 -119.040641 185 509ft 0kts
02-Jan-21 09:02 35.426255 -119.040641 185 509ft 0kts
02-Jan-21 09:03 35.426255 -119.040641 185 509ft 0kts
02-Jan-21 09:04 35.426255 -119.040641 185 509ft 0kts
02-Jan-21 09:05 35.426255 -119.040641 185 509ft 0kts
02-Jan-21 09:06 35.426255 -119.040641 185 509ft 0kts
02-Jan-21 09:07 35.426255 -119.040641 185 509ft 0kts
02-Jan-21 09:08 35.426255 -119.040641 185 509ft 0kts
02-Jan-21 09:09 35.426255 -119.040641 185 509ft 0kts
02-Jan-21 09:10 35.426255 -119.040641 185 509ft 0kts
02-Jan-21 09:11 35.426255 -119.040641 185 509ft 0kts
02-Jan-21 09:12 35.426255 -119.040641 185 509ft 0kts
02-Jan-21 09:13 35.426255 -119.040641 185 509ft 0kts
02-Jan-21 09:14 35.426255 -119.040641 185 509ft 0kts
02-Jan-21 09:15 35.426255 -119.040641 185 509ft 0kts
02-Jan-21 09:16 35.426255 -119.040641 185 509ft 0kts
02-Jan-21 09:17 35.426255 -119.040641 185 509ft 0kts
02-Jan-21 09:18 35.426255 -119.040641 185 509ft 0kts
02-Jan-21 09:19 35.426255 -119.040641 185 509ft 0kts
02-Jan-21 09:20 35.426255 -119.040641 185 509ft 0kts
02-Jan-21 09:21 35.426255 -119.040641 185 509ft 0kts
02-Jan-21 09:22 35.426255 -119.040641 185 509ft 0kts
02-Jan-21 09:23 35.426255 -119.040641 185 509ft 0kts
02-Jan-21 09:24 35.426255 -119.040641 185 509ft 0kts
02-Jan-21 09:25 35.426255 -119.040641 185 509ft 0kts
02-Jan-21 09:26 35.426255 -119.040641 185 509ft 0kts
02-Jan-21 09:27 35.426255 -119.040641 185 509ft 0kts
02-Jan-21 09:28 35.426255 -119.040641 185 509ft 0kts
02-Jan-21 09:29 35.425698 -119.041036 243 509ft 6kts
02-Jan-21 09:30 35.425654 -119.043498 255 509ft 8kts
02-Jan-21 09:31 35.425269 -119.044307 295 509ft 0kts
02-Jan-21 09:32 35.425269 -119.044307 295 509ft 0kts
02-Jan-21 09:33 35.425269 -119.044307 295 509ft 0kts
02-Jan-21 09:34 35.425805 -119.044960 272 509ft 4kts
02-Jan-21 09:35 35.425779 -119.045065 240 509ft 0kts
02-Jan-21 09:36 35.425741 -119.045128 230 509ft 2kts
02-Jan-21 09:37 35.427121 -119.048051 314 509ft 48kts
02-Jan-21 09:38 35.445267 -119.070763 312 913ft 97kts
02-Jan-21 09:39 35.463223 -119.092850 346 1697ft 90kts
02-Jan-21 09:40 35.466938 -119.067859 131 2483ft 109kts
02-Jan-21 09:41 35.447080 -119.040099 131 3285ft 106kts
02-Jan-21 09:42 35.428050 -119.012340 131 4021ft 107kts
02-Jan-21 09:43 35.409118 -118.984162 131 4722ft 106kts
02-Jan-21 09:44 35.387357 -118.960752 166 5329ft 104kts
02-Jan-21 09:45 35.359520 -118.950918 167 5930ft 103kts
02-Jan-21 09:46 35.335233 -118.932892 141 6508ft 104kts
02-Jan-21 09:47 35.314186 -118.907681 137 7011ft 106kts
02-Jan-21 09:48 35.293536 -118.881976 137 7511ft 104kts
02-Jan-21 09:49 35.273188 -118.857112 140 7985ft 103kts
02-Jan-21 09:50 35.251882 -118.832948 140 8393ft 104kts
02-Jan-21 09:51 35.230698 -118.809014 140 8790ft 103kts
02-Jan-21 09:52 35.209761 -118.785373 139 9181ft 101kts
02-Jan-21 09:53 35.188582 -118.760966 137 9484ft 106kts
02-Jan-21 09:54 35.166875 -118.736373 139 9780ft 106kts
02-Jan-21 09:55 35.145063 -118.712077 139 10075ft 105kts
02-Jan-21 09:56 35.123350 -118.687892 139 10370ft 105kts
02-Jan-21 09:57 35.101795 -118.663664 140 10664ft 104kts
02-Jan-21 09:58 35.080421 -118.639608 140 10957ft 104kts
02-Jan-21 09:59 35.059085 -118.615562 141 11250ft 103kts
02-Jan-21 10:00 35.037659 -118.591502 141 11495ft 106kts
02-Jan-21 10:01 35.014891 -118.564511 137 11507ft 119kts
02-Jan-21 10:02 34.991935 -118.534471 137 11507ft 121kts
02-Jan-21 10:03 34.968757 -118.504026 137 11503ft 122kts
02-Jan-21 10:04 34.945557 -118.473557 137 11500ft 122kts
02-Jan-21 10:05 34.922304 -118.443043 137 11496ft 122kts
02-Jan-21 10:06 34.898994 -118.412485 137 11499ft 122kts
02-Jan-21 10:07 34.875388 -118.381592 137 11460ft 125kts
02-Jan-21 10:08 34.852121 -118.351110 137 11503ft 123kts
02-Jan-21 10:09 34.828616 -118.320385 137 11503ft 123kts
02-Jan-21 10:10 34.805085 -118.289640 137 11503ft 123kts
02-Jan-21 10:11 34.781435 -118.258768 137 11482ft 123kts
02-Jan-21 10:13 34.758032 -118.228241 137 11501ft 123kts
02-Jan-21 10:14 34.734477 -118.197546 137 11505ft 123kts
02-Jan-21 10:15 34.710901 -118.166850 137 11506ft 124kts
02-Jan-21 10:16 34.687237 -118.136067 137 11508ft 124kts
02-Jan-21 10:17 34.663470 -118.105127 138 11507ft 124kts
02-Jan-21 10:18 34.639692 -118.074258 138 11507ft 124kts
02-Jan-21 10:19 34.629654 -118.032773 103 11506ft 132kts
02-Jan-21 10:20 34.625112 -117.988190 101 11486ft 134kts
02-Jan-21 10:21 34.621064 -117.943443 100 11500ft 132kts
02-Jan-21 10:22 34.617090 -117.898650 100 11500ft 132kts
02-Jan-21 10:23 34.613165 -117.853927 100 11504ft 133kts
02-Jan-21 10:24 34.609151 -117.808778 100 11498ft 133kts
02-Jan-21 10:25 34.605091 -117.763651 100 11497ft 133kts
02-Jan-21 10:25 34.601715 -117.726153 100 11498ft 134kts
02-Jan-21 10:27 34.597036 -117.673896 100 11528ft 132kts
02-Jan-21 10:28 34.592934 -117.628510 100 11504ft 134kts
02-Jan-21 10:29 34.588836 -117.583271 100 11528ft 132kts
02-Jan-21 10:29 34.585385 -117.545596 100 11513ft 135kts
02-Jan-21 10:30 34.581186 -117.499805 100 11503ft 134kts
02-Jan-21 10:32 34.576405 -117.447307 100 11502ft 133kts
02-Jan-21 10:32 34.572966 -117.409991 100 11503ft 133kts
02-Jan-21 10:33 34.568778 -117.365069 100 11501ft 134kts
02-Jan-21 10:34 34.564663 -117.320036 101 11500ft 133kts
02-Jan-21 10:35 34.560447 -117.275147 101 11501ft 133kts
02-Jan-21 10:36 34.556251 -117.230398 101 11498ft 133kts
02-Jan-21 10:37 34.552053 -117.185621 101 11537ft 131kts
02-Jan-21 10:38 34.547869 -117.141660 101 11592ft 134kts
02-Jan-21 10:39 34.543493 -117.095437 101 11503ft 138kts
02-Jan-21 10:40 34.539124 -117.049429 101 11504ft 136kts
02-Jan-21 10:41 34.534754 -117.003704 101 11502ft 135kts
02-Jan-21 10:42 34.530380 -116.957908 101 11502ft 135kts
02-Jan-21 10:43 34.525986 -116.912280 100 11525ft 136kts
02-Jan-21 10:44 34.521493 -116.865905 101 11507ft 136kts
02-Jan-21 10:45 34.517022 -116.819970 101 11506ft 136kts
02-Jan-21 10:46 34.512552 -116.774038 100 11511ft 136kts
02-Jan-21 10:47 34.508042 -116.728063 101 11507ft 136kts
02-Jan-21 10:48 34.499947 -116.684094 146 11498ft 126kts
02-Jan-21 10:49 34.468918 -116.666213 166 11502ft 122kts
02-Jan-21 10:50 34.436716 -116.652359 165 11500ft 121kts
02-Jan-21 10:51 34.404516 -116.639351 166 11504ft 122kts
02-Jan-21 10:52 34.372222 -116.626456 166 11504ft 121kts
02-Jan-21 10:53 34.339864 -116.613656 167 11506ft 121kts
02-Jan-21 10:54 34.307645 -116.600973 167 11507ft 121kts
02-Jan-21 10:55 34.275479 -116.588394 167 11508ft 121kts
02-Jan-21 10:56 34.241071 -116.574928 166 10767ft 133kts
02-Jan-21 10:57 34.205669 -116.560925 165 9967ft 133kts
02-Jan-21 10:58 34.170598 -116.547171 165 9202ft 128kts
02-Jan-21 10:59 34.137231 -116.534135 165 8406ft 124kts
02-Jan-21 11:00 34.103670 -116.521971 175 7695ft 124kts
02-Jan-21 11:01 34.068980 -116.519143 180 6882ft 124kts
02-Jan-21 11:02 34.034065 -116.517300 180 6077ft 125kts
02-Jan-21 11:03 33.998818 -116.515458 180 5274ft 126kts
02-Jan-21 11:04 33.963673 -116.513603 179 4470ft 124kts
02-Jan-21 11:05 33.929192 -116.511836 178 3716ft 115kts
02-Jan-21 11:06 33.900571 -116.510345 178 2911ft 95kts
02-Jan-21 11:07 33.874590 -116.509002 177 2104ft 92kts
02-Jan-21 11:08 33.852781 -116.496406 141 1430ft 74kts
02-Jan-21 11:09 33.837084 -116.481738 141 1452ft 75kts
02-Jan-21 11:10 33.819997 -116.466138 155 1357ft 78kts
02-Jan-21 11:11 33.807951 -116.482049 282 1115ft 77kts
02-Jan-21 11:12 33.821445 -116.500221 323 486ft 60kts
02-Jan-21 11:13 33.825126 -116.504368 171 481ft 6kts
02-Jan-21 11:14 33.824499 -116.504263 171 481ft 0kts
02-Jan-21 11:15 33.824351 -116.504236 170 481ft 3kts
02-Jan-21 11:16 33.824856 -116.505449 324 481ft 10kts
02-Jan-21 11:17 33.825383 -116.508477 272 481ft 13kts
02-Jan-21 11:18 33.826605 -116.509422 80 481ft 0kts
02-Jan-21 11:19 33.826610 -116.509373 82 481ft 0kts
02-Jan-21 11:20 33.826610 -116.509373 82 481ft 0kts
02-Jan-21 11:21 33.826610 -116.509373 82 481ft 0kts
02-Jan-21 11:22 33.826610 -116.509373 82 481ft 0kts
02-Jan-21 11:23 33.826610 -116.509373 82 481ft 0kts
02-Jan-21 11:24 33.826610 -116.509373 82 481ft 0kts
02-Jan-21 11:25 33.826610 -116.509373 82 481ft 0kts
02-Jan-21 11:26 33.826610 -116.509373 82 481ft 0kts

Navigation Log

Ident Type
Flight plan parsing failed, navigation log unavailable